createdAt,value
2018-12-09T00:00:24.209Z,91.90
2018-12-09T00:02:58.882Z,92.50
2018-12-09T00:05:33.919Z,92.70
2018-12-09T00:08:08.693Z,93.20
2018-12-09T00:10:46.874Z,93.50
2018-12-09T00:13:21.093Z,93.50
2018-12-09T00:15:55.283Z,93.70
2018-12-09T00:18:33.128Z,93.80
2018-12-09T00:21:07.295Z,93.60
2018-12-09T00:23:45.574Z,93.70
2018-12-09T00:26:19.669Z,93.60
2018-12-09T00:28:57.896Z,93.90
2018-12-09T00:31:32.196Z,93.90
2018-12-09T00:34:06.463Z,93.60
2018-12-09T00:36:40.287Z,93.60
2018-12-09T00:39:14.150Z,93.70
2018-12-09T00:41:48.423Z,94.20
2018-12-09T00:44:22.582Z,94.30
2018-12-09T00:46:56.540Z,94.80
2018-12-09T00:49:30.622Z,94.70
2018-12-09T00:52:05.317Z,94.40
2018-12-09T00:54:39.257Z,94.40
2018-12-09T00:57:13.303Z,94.00
2018-12-09T00:59:47.708Z,93.70
2018-12-09T01:02:25.586Z,93.20
2018-12-09T01:04:59.776Z,92.70
2018-12-09T01:07:33.879Z,91.80
2018-12-09T01:10:09.423Z,91.40
2018-12-09T01:12:43.258Z,90.90
2018-12-09T01:15:17.576Z,90.50
2018-12-09T01:17:51.660Z,90.40
2018-12-09T01:20:26.027Z,90.30
2018-12-09T01:22:59.995Z,90.80
2018-12-09T01:25:38.214Z,90.50
2018-12-09T01:28:17.144Z,90.20
2018-12-09T01:30:51.904Z,90.10
2018-12-09T01:33:25.848Z,90.30
2018-12-09T01:35:59.830Z,90.30
2018-12-09T01:38:33.846Z,90.70
2018-12-09T01:41:07.849Z,90.30
2018-12-09T01:43:41.785Z,90.30
2018-12-09T01:46:15.929Z,90.50
2018-12-09T01:48:51.184Z,90.50
2018-12-09T01:51:25.085Z,90.70
2018-12-09T01:54:16.272Z,90.80
2018-12-09T01:56:54.874Z,90.80
2018-12-09T01:59:29.241Z,91.00
2018-12-09T02:02:03.914Z,91.30
2018-12-09T02:04:37.725Z,91.80
2018-12-09T02:07:11.722Z,92.40
2018-12-09T02:09:49.949Z,92.90
2018-12-09T02:12:24.097Z,93.30
2018-12-09T02:14:58.028Z,93.70
2018-12-09T02:17:35.854Z,94.10
2018-12-09T02:20:10.144Z,94.50
2018-12-09T02:22:48.590Z,94.90
2018-12-09T02:25:22.562Z,95.00
2018-12-09T02:27:56.564Z,95.30
2018-12-09T02:30:31.076Z,95.70
2018-12-09T02:33:05.067Z,96.00
2018-12-09T02:35:46.920Z,96.00
2018-12-09T02:38:21.635Z,96.10
2018-12-09T02:40:59.530Z,96.30
2018-12-09T02:43:33.998Z,96.50
2018-12-09T02:46:08.482Z,96.70
2018-12-09T02:48:42.344Z,96.90
2018-12-09T02:51:16.330Z,97.20
2018-12-09T02:53:50.667Z,97.30
2018-12-09T02:56:24.789Z,97.20
2018-12-09T02:58:58.999Z,97.10
2018-12-09T03:01:37.066Z,97.20
2018-12-09T03:04:15.216Z,97.20
2018-12-09T03:06:49.306Z,97.40
2018-12-09T03:09:23.381Z,97.20
2018-12-09T03:11:57.386Z,97.30
2018-12-09T03:14:31.791Z,97.30
2018-12-09T03:17:06.389Z,97.30
2018-12-09T03:19:41.000Z,97.30
2018-12-09T03:22:15.016Z,97.50
2018-12-09T03:24:49.131Z,97.70
2018-12-09T03:27:23.174Z,97.60
2018-12-09T03:29:57.383Z,97.70
2018-12-09T03:32:31.638Z,97.80
2018-12-09T03:35:06.249Z,97.90
2018-12-09T03:37:40.589Z,98.00
2018-12-09T03:40:15.098Z,98.10
2018-12-09T03:42:48.946Z,98.30
2018-12-09T03:45:23.130Z,98.20
2018-12-09T03:47:57.404Z,98.30
2018-12-09T03:50:35.855Z,98.40
2018-12-09T03:53:10.080Z,98.50
2018-12-09T03:55:43.874Z,98.70
2018-12-09T03:58:22.434Z,98.90
2018-12-09T04:00:56.648Z,99.10
2018-12-09T04:06:03.846Z,99.10
2018-12-09T04:08:37.826Z,99.20
2018-12-09T04:11:12.421Z,99.20
2018-12-09T04:13:46.464Z,99.40
2018-12-09T04:16:21.064Z,99.40
2018-12-09T04:18:54.910Z,99.50
2018-12-09T04:21:28.854Z,99.60
2018-12-09T04:24:06.847Z,99.50
2018-12-09T04:26:40.938Z,99.50
2018-12-09T04:29:14.868Z,99.70
2018-12-09T04:31:48.787Z,99.80
2018-12-09T04:34:22.866Z,99.90
2018-12-09T04:36:56.963Z,99.90
2018-12-09T04:39:41.657Z,99.90
2018-12-09T04:42:16.156Z,99.90
2018-12-09T04:44:57.506Z,99.90
2018-12-09T04:47:31.883Z,99.90
2018-12-09T04:50:07.133Z,99.90
2018-12-09T04:52:45.235Z,99.90
2018-12-09T04:55:23.236Z,99.90
2018-12-09T04:57:57.327Z,99.90
2018-12-09T05:00:47.692Z,99.90
2018-12-09T05:03:26.441Z,99.90
2018-12-09T05:11:05.916Z,99.90
2018-12-09T05:16:12.946Z,99.90
2018-12-09T05:21:19.691Z,99.90
2018-12-09T05:23:53.940Z,99.90
2018-12-09T05:26:29.040Z,99.90
2018-12-09T05:29:02.993Z,99.90
2018-12-09T05:31:41.191Z,99.90
2018-12-09T05:34:15.434Z,99.90
2018-12-09T05:36:49.498Z,99.90
2018-12-09T05:39:23.799Z,99.90
2018-12-09T05:42:02.000Z,99.90
2018-12-09T05:44:36.324Z,99.90
2018-12-09T05:47:14.256Z,99.90
2018-12-09T05:49:48.368Z,99.90
2018-12-09T05:52:22.748Z,99.90
2018-12-09T05:54:56.545Z,99.90
2018-12-09T05:57:31.016Z,99.90
2018-12-09T06:00:06.318Z,99.90
2018-12-09T06:02:56.003Z,99.90
2018-12-09T06:05:30.518Z,99.90
2018-12-09T06:08:04.742Z,99.90
2018-12-09T06:10:42.943Z,99.90
2018-12-09T06:13:16.994Z,99.90
2018-12-09T06:15:50.972Z,99.90
2018-12-09T06:18:25.425Z,99.90
2018-12-09T06:23:36.374Z,99.90
2018-12-09T06:26:14.419Z,99.90
2018-12-09T06:28:48.507Z,99.90
2018-12-09T06:31:26.599Z,99.90
2018-12-09T06:34:00.406Z,99.90
2018-12-09T06:36:34.522Z,99.90
2018-12-09T06:39:08.653Z,99.90
2018-12-09T06:41:46.699Z,99.90
2018-12-09T06:44:20.849Z,99.90
2018-12-09T06:46:55.193Z,99.90
2018-12-09T06:49:29.100Z,99.90
2018-12-09T06:52:03.398Z,99.90
2018-12-09T06:54:37.875Z,99.90
2018-12-09T06:57:12.093Z,99.90
2018-12-09T06:59:46.255Z,99.90
2018-12-09T07:02:20.361Z,99.90
2018-12-09T07:04:54.443Z,99.90
2018-12-09T07:07:28.637Z,99.90
2018-12-09T07:10:02.609Z,99.90
2018-12-09T07:12:40.934Z,99.90
2018-12-09T07:15:15.862Z,99.90
2018-12-09T07:17:53.890Z,99.90
2018-12-09T07:20:27.920Z,99.90
2018-12-09T07:25:38.980Z,99.90
2018-12-09T07:28:13.181Z,99.90
2018-12-09T07:30:47.207Z,99.90
2018-12-09T07:33:21.228Z,99.90
2018-12-09T07:35:55.463Z,99.90
2018-12-09T07:38:30.426Z,99.90
2018-12-09T07:41:05.069Z,99.90
2018-12-09T07:43:43.345Z,99.90
2018-12-09T07:46:21.237Z,99.90
2018-12-09T07:48:59.095Z,99.90
2018-12-09T07:51:34.349Z,99.90
2018-12-09T07:54:08.542Z,99.90
2018-12-09T07:56:42.669Z,99.90
2018-12-09T07:59:16.767Z,99.90
2018-12-09T08:01:55.691Z,99.90
2018-12-09T08:04:34.034Z,99.90
2018-12-09T08:07:08.141Z,99.90
2018-12-09T08:09:42.944Z,99.90
2018-12-09T08:12:17.560Z,99.90
2018-12-09T08:14:52.513Z,99.90
2018-12-09T08:17:26.950Z,99.90
2018-12-09T08:20:00.719Z,99.90
2018-12-09T08:22:35.182Z,99.90
2018-12-09T08:25:09.392Z,99.90
2018-12-09T08:27:43.546Z,99.90
2018-12-09T08:30:18.033Z,99.90
2018-12-09T08:32:52.307Z,99.90
2018-12-09T08:35:26.354Z,99.90
2018-12-09T08:38:00.328Z,99.90
2018-12-09T08:40:34.289Z,99.80
2018-12-09T08:43:08.654Z,99.30
2018-12-09T08:45:43.773Z,99.60
2018-12-09T08:48:17.959Z,99.80
2018-12-09T08:50:52.027Z,99.50
2018-12-09T08:53:26.032Z,99.90
2018-12-09T08:56:00.403Z,99.70
2018-12-09T08:58:34.911Z,99.70
2018-12-09T09:01:09.072Z,99.90
2018-12-09T09:03:44.024Z,99.90
2018-12-09T09:06:17.867Z,99.90
2018-12-09T09:08:52.100Z,99.70
2018-12-09T09:11:30.153Z,99.90
2018-12-09T09:14:04.443Z,99.80
2018-12-09T09:16:38.628Z,99.30
2018-12-09T09:19:16.947Z,99.30
2018-12-09T09:21:51.081Z,99.20
2018-12-09T09:24:25.512Z,99.30
2018-12-09T09:27:00.360Z,99.30
2018-12-09T09:29:34.491Z,99.60
2018-12-09T09:32:08.529Z,99.10
2018-12-09T09:34:42.979Z,99.50
2018-12-09T09:37:21.088Z,99.40
2018-12-09T09:39:55.414Z,99.40
2018-12-09T09:42:29.523Z,99.50
2018-12-09T09:45:03.984Z,99.30
2018-12-09T09:47:38.881Z,99.40
2018-12-09T09:50:13.006Z,99.70
2018-12-09T09:52:47.454Z,99.60
2018-12-09T09:55:21.341Z,99.60
2018-12-09T09:57:59.533Z,99.40
2018-12-09T10:00:33.906Z,99.70
2018-12-09T10:03:08.904Z,99.70
2018-12-09T10:05:47.326Z,99.80
2018-12-09T10:08:25.527Z,99.80
2018-12-09T10:10:59.478Z,99.90
2018-12-09T10:13:33.447Z,99.90
2018-12-09T10:16:07.651Z,99.30
2018-12-09T10:18:42.073Z,99.60
2018-12-09T10:21:16.815Z,99.90
2018-12-09T10:23:51.683Z,99.90
2018-12-09T10:26:25.681Z,99.90
2018-12-09T10:28:59.930Z,99.90
2018-12-09T10:31:34.800Z,99.90
2018-12-09T10:34:12.922Z,99.90
2018-12-09T10:36:47.180Z,99.90
2018-12-09T10:39:27.314Z,99.90
2018-12-09T10:42:02.036Z,99.90
2018-12-09T10:44:37.227Z,99.90
2018-12-09T10:47:11.474Z,99.90
2018-12-09T10:49:45.435Z,99.90
2018-12-09T10:52:19.514Z,99.90
2018-12-09T10:54:53.592Z,99.90
2018-12-09T10:57:27.756Z,99.90
2018-12-09T11:00:02.161Z,99.90
2018-12-09T11:02:37.092Z,99.90
2018-12-09T11:05:11.458Z,99.90
2018-12-09T11:07:45.552Z,99.90
2018-12-09T11:10:19.589Z,99.90
2018-12-09T11:12:53.898Z,99.90
2018-12-09T11:15:27.884Z,99.80
2018-12-09T11:18:01.971Z,99.80
2018-12-09T11:20:36.194Z,99.50
2018-12-09T11:23:10.425Z,99.00
2018-12-09T11:25:45.851Z,98.50
2018-12-09T11:28:20.484Z,97.50
2018-12-09T11:30:54.653Z,97.50
2018-12-09T11:33:32.829Z,97.00
2018-12-09T11:36:13.927Z,96.40
2018-12-09T11:38:52.088Z,95.90
2018-12-09T11:41:26.195Z,96.00
2018-12-09T11:44:00.346Z,95.20
2018-12-09T11:46:38.315Z,95.30
2018-12-09T11:49:12.711Z,94.70
2018-12-09T11:51:46.718Z,94.90
2018-12-09T11:54:21.293Z,93.30
2018-12-09T11:56:55.365Z,92.60
2018-12-09T11:59:29.640Z,92.80
2018-12-09T12:02:03.831Z,92.60
2018-12-09T12:04:39.568Z,92.50
2018-12-09T12:07:14.513Z,93.20
2018-12-09T12:09:52.499Z,93.80
2018-12-09T12:12:26.746Z,93.40
2018-12-09T12:15:01.474Z,92.90
2018-12-09T12:17:35.762Z,92.70
2018-12-09T12:20:10.514Z,92.30
2018-12-09T12:22:44.909Z,92.50
2018-12-09T12:25:19.419Z,92.40
2018-12-09T12:27:53.875Z,92.40
2018-12-09T12:30:28.713Z,92.40
2018-12-09T12:33:02.807Z,93.20
2018-12-09T12:35:36.942Z,93.10
2018-12-09T12:38:11.644Z,93.50
2018-12-09T12:40:46.039Z,93.30
2018-12-09T12:43:20.451Z,93.50
2018-12-09T12:45:54.695Z,93.60
2018-12-09T12:48:28.946Z,93.20
2018-12-09T12:51:03.340Z,93.30
2018-12-09T12:53:38.200Z,92.70
2018-12-09T12:56:17.023Z,92.80
2018-12-09T12:58:51.900Z,92.20
2018-12-09T13:01:26.075Z,92.50
2018-12-09T13:04:00.190Z,92.00
2018-12-09T13:06:34.483Z,92.50
2018-12-09T13:09:10.234Z,91.90
2018-12-09T13:11:45.143Z,91.90
2018-12-09T13:14:20.061Z,92.10
2018-12-09T13:16:54.634Z,92.10
2018-12-09T13:19:29.976Z,92.00
2018-12-09T13:22:08.558Z,92.80
2018-12-09T13:24:43.715Z,92.00
2018-12-09T13:27:18.752Z,92.20
2018-12-09T13:29:53.315Z,92.80
2018-12-09T13:32:28.013Z,92.00
2018-12-09T13:37:35.818Z,93.60
2018-12-09T13:40:10.341Z,93.60
2018-12-09T13:42:44.360Z,93.40
2018-12-09T13:45:22.792Z,93.50
2018-12-09T13:47:57.499Z,93.80
2018-12-09T13:50:32.160Z,93.30
2018-12-09T13:53:06.111Z,93.50
2018-12-09T13:55:41.312Z,93.80
2018-12-09T13:58:19.536Z,93.80
2018-12-09T14:00:53.973Z,93.80
2018-12-09T14:03:28.107Z,94.20
2018-12-09T14:06:02.250Z,94.00
2018-12-09T14:08:36.749Z,94.00
2018-12-09T14:11:11.003Z,94.40
2018-12-09T14:13:49.847Z,94.40
2018-12-09T14:16:25.302Z,94.40
2018-12-09T14:18:59.290Z,94.70
2018-12-09T14:21:34.277Z,94.80
2018-12-09T14:24:12.541Z,94.90
2018-12-09T14:26:46.608Z,95.00
2018-12-09T14:29:21.222Z,94.90
2018-12-09T14:31:59.937Z,94.90
2018-12-09T14:34:34.736Z,95.00
2018-12-09T14:37:08.823Z,95.00
2018-12-09T14:39:42.828Z,95.20
2018-12-09T14:42:16.725Z,95.20
2018-12-09T14:44:50.963Z,95.30
2018-12-09T14:47:29.924Z,95.10
2018-12-09T14:50:04.072Z,94.80
2018-12-09T14:52:43.176Z,95.00
2018-12-09T14:55:21.065Z,95.10
2018-12-09T14:57:55.154Z,95.20
2018-12-09T15:00:33.381Z,95.20
2018-12-09T15:03:07.343Z,95.30
2018-12-09T15:05:41.512Z,95.20
2018-12-09T15:08:15.595Z,95.20
2018-12-09T15:10:54.332Z,95.40
2018-12-09T15:13:28.853Z,95.80
2018-12-09T15:16:03.049Z,95.90
2018-12-09T15:18:36.941Z,96.10
2018-12-09T15:21:11.222Z,96.40
2018-12-09T15:23:45.300Z,96.20
2018-12-09T15:26:19.507Z,96.40
2018-12-09T15:29:00.470Z,96.60
2018-12-09T15:31:34.792Z,96.50
2018-12-09T15:34:09.683Z,96.70
2018-12-09T15:36:43.607Z,97.00
2018-12-09T15:39:17.779Z,96.90
2018-12-09T15:44:25.276Z,97.00
2018-12-09T15:46:59.273Z,97.20
2018-12-09T15:49:37.488Z,97.30
2018-12-09T15:52:15.727Z,97.40
2018-12-09T15:54:50.526Z,97.60
2018-12-09T15:57:24.820Z,97.30
2018-12-09T15:59:58.984Z,97.60
2018-12-09T16:02:32.922Z,97.60
2018-12-09T16:05:14.095Z,97.40
2018-12-09T16:07:52.234Z,97.60
2018-12-09T16:10:30.451Z,97.60
2018-12-09T16:13:04.569Z,97.60
2018-12-09T16:15:42.766Z,97.60
2018-12-09T16:18:17.476Z,98.00
2018-12-09T16:20:51.603Z,97.80
2018-12-09T16:23:26.007Z,97.70
2018-12-09T16:26:00.235Z,98.00
2018-12-09T16:28:35.298Z,97.90
2018-12-09T16:31:09.698Z,98.20
2018-12-09T16:33:43.714Z,98.50
2018-12-09T16:36:17.818Z,98.80
2018-12-09T16:38:52.105Z,98.90
2018-12-09T16:41:26.305Z,99.00
2018-12-09T16:46:33.388Z,99.50
2018-12-09T16:49:08.066Z,99.70
2018-12-09T16:51:42.899Z,99.80
2018-12-09T16:54:16.819Z,99.90
2018-12-09T16:56:50.920Z,99.90
2018-12-09T16:59:25.059Z,99.90
2018-12-09T17:01:59.263Z,99.90
2018-12-09T17:04:37.338Z,99.90
2018-12-09T17:07:15.580Z,99.90
2018-12-09T17:09:49.483Z,99.90
2018-12-09T17:12:23.765Z,99.90
2018-12-09T17:15:01.899Z,99.90
2018-12-09T17:17:35.797Z,99.90
2018-12-09T17:20:14.164Z,99.90
2018-12-09T17:22:48.385Z,99.90
2018-12-09T17:25:22.414Z,99.90
2018-12-09T17:28:00.642Z,99.90
2018-12-09T17:30:34.862Z,99.90
2018-12-09T17:33:09.045Z,99.90
2018-12-09T17:35:43.415Z,99.90
2018-12-09T17:38:21.425Z,99.90
2018-12-09T17:40:59.631Z,99.90
2018-12-09T17:43:37.956Z,99.90
2018-12-09T17:46:16.197Z,99.90
2018-12-09T17:48:50.238Z,99.90
2018-12-09T17:51:24.434Z,99.90
2018-12-09T17:53:58.523Z,99.80
2018-12-09T17:56:32.554Z,99.60
2018-12-09T17:59:06.727Z,98.60
2018-12-09T18:01:44.896Z,98.00
2018-12-09T18:04:18.888Z,97.90
2018-12-09T18:06:53.165Z,98.20
2018-12-09T18:09:27.382Z,97.50
2018-12-09T18:12:01.422Z,97.80
2018-12-09T18:14:37.371Z,98.00
2018-12-09T18:17:12.346Z,97.80
2018-12-09T18:19:47.032Z,97.80
2018-12-09T18:22:21.496Z,98.20
2018-12-09T18:25:00.418Z,98.00
2018-12-09T18:27:35.204Z,98.10
2018-12-09T18:30:09.438Z,97.50
2018-12-09T18:32:43.356Z,97.90
2018-12-09T18:35:17.677Z,98.00
2018-12-09T18:37:52.838Z,98.40
2018-12-09T18:40:28.036Z,98.20
2018-12-09T18:43:02.862Z,98.30
2018-12-09T18:45:36.901Z,98.10
2018-12-09T18:50:44.078Z,98.40
2018-12-09T18:53:18.246Z,98.60
2018-12-09T18:55:57.288Z,98.70
2018-12-09T18:58:31.536Z,98.50
2018-12-09T19:01:06.694Z,98.70
2018-12-09T19:03:44.687Z,99.10
2018-12-09T19:06:19.786Z,99.00
2018-12-09T19:08:54.123Z,99.20
2018-12-09T19:11:28.433Z,99.10
2018-12-09T19:14:02.632Z,99.50
2018-12-09T19:16:40.967Z,99.10
2018-12-09T19:19:15.555Z,99.50
2018-12-09T19:21:49.553Z,99.20
2018-12-09T19:24:24.045Z,99.20
2018-12-09T19:27:02.482Z,99.50
2018-12-09T19:29:41.592Z,99.70
2018-12-09T19:32:15.807Z,99.60
2018-12-09T19:34:54.052Z,99.90
2018-12-09T19:37:28.298Z,99.90
2018-12-09T19:40:07.082Z,99.60
2018-12-09T19:42:41.349Z,99.40
2018-12-09T19:45:15.520Z,99.40
2018-12-09T19:47:49.654Z,99.70
2018-12-09T19:58:02.133Z,99.80
2018-12-09T20:00:36.312Z,99.90
2018-12-09T20:03:15.499Z,99.90
2018-12-09T20:05:49.682Z,99.90
2018-12-09T20:08:23.763Z,99.90
2018-12-09T20:10:57.978Z,99.90
2018-12-09T20:13:32.593Z,99.90
2018-12-09T20:16:06.535Z,99.80
2018-12-09T20:18:40.786Z,99.90
2018-12-09T20:21:15.213Z,99.80
2018-12-09T20:23:50.191Z,99.60
2018-12-09T20:26:28.776Z,99.70
2018-12-09T20:29:03.791Z,99.80
2018-12-09T20:31:38.268Z,99.60
2018-12-09T20:34:12.798Z,99.70
2018-12-09T20:36:47.772Z,99.90
2018-12-09T20:39:22.238Z,99.90
2018-12-09T20:41:57.168Z,99.90
2018-12-09T20:44:31.804Z,99.90
2018-12-09T20:47:05.955Z,99.90
2018-12-09T20:49:40.353Z,99.90
2018-12-09T20:52:15.160Z,99.90
2018-12-09T20:54:49.906Z,99.90
2018-12-09T20:57:24.348Z,99.90
2018-12-09T20:59:58.249Z,99.90
2018-12-09T21:02:36.174Z,99.90
2018-12-09T21:05:10.335Z,99.90
2018-12-09T21:07:44.587Z,99.90
2018-12-09T21:10:18.751Z,99.90
2018-12-09T21:12:54.097Z,99.90
2018-12-09T21:15:28.871Z,99.90
2018-12-09T21:18:03.019Z,99.90
2018-12-09T21:20:38.006Z,99.90
2018-12-09T21:23:12.708Z,99.90
2018-12-09T21:25:52.145Z,99.90
2018-12-09T21:28:26.494Z,99.90
2018-12-09T21:31:00.706Z,99.90
2018-12-09T21:33:36.540Z,99.90
2018-12-09T21:36:11.127Z,99.90
2018-12-09T21:38:45.584Z,99.90
2018-12-09T21:41:19.618Z,99.90
2018-12-09T21:43:53.590Z,99.90
2018-12-09T21:46:27.715Z,99.90
2018-12-09T21:49:02.240Z,99.90
2018-12-09T21:51:41.386Z,99.90
2018-12-09T21:54:16.099Z,99.90
2018-12-09T21:56:54.430Z,99.90
2018-12-09T21:59:28.473Z,99.90
2018-12-09T22:02:03.046Z,99.90
2018-12-09T22:04:38.231Z,99.90
2018-12-09T22:07:12.610Z,99.90
2018-12-09T22:09:50.981Z,99.90
2018-12-09T22:12:26.057Z,99.90
2018-12-09T22:15:04.525Z,99.90
2018-12-09T22:17:39.302Z,99.90
2018-12-09T22:20:14.076Z,99.90
2018-12-09T22:22:48.249Z,99.90
2018-12-09T22:25:22.216Z,99.90
2018-12-09T22:27:56.293Z,99.90
2018-12-09T22:30:30.287Z,99.90
2018-12-09T22:33:04.591Z,99.90
2018-12-09T22:35:42.817Z,99.90
2018-12-09T22:38:18.180Z,99.90
2018-12-09T22:40:52.982Z,99.90
2018-12-09T22:43:27.296Z,99.90
2018-12-09T22:46:02.440Z,99.90
2018-12-09T22:48:37.087Z,99.90
2018-12-09T22:51:10.995Z,99.90
2018-12-09T22:53:44.948Z,99.90
2018-12-09T22:56:23.709Z,99.90
2018-12-09T22:58:57.608Z,99.90
2018-12-09T23:01:35.921Z,99.90
2018-12-09T23:04:14.064Z,99.90
2018-12-09T23:06:48.207Z,99.90
2018-12-09T23:09:23.222Z,99.90
2018-12-09T23:12:01.485Z,99.90
2018-12-09T23:14:36.400Z,99.90
2018-12-09T23:17:10.514Z,99.80
2018-12-09T23:19:48.983Z,99.90
2018-12-09T23:22:27.893Z,99.90
2018-12-09T23:25:02.072Z,99.90
2018-12-09T23:27:36.473Z,99.90
2018-12-09T23:30:11.419Z,99.90
2018-12-09T23:32:45.382Z,99.90
2018-12-09T23:35:19.473Z,99.60
2018-12-09T23:37:53.547Z,99.50
2018-12-09T23:40:27.901Z,99.80
2018-12-09T23:43:02.398Z,99.90
2018-12-09T23:45:36.332Z,99.90
2018-12-09T23:48:10.739Z,99.90
2018-12-09T23:50:48.771Z,99.90
2018-12-09T23:53:22.870Z,99.90
2018-12-09T23:55:57.143Z,99.90
2018-12-09T23:58:31.434Z,99.90
